Terminal Aerodrome Forecast
Issued by NWS

Home | Current Version | Previous Version | Text Only | Print | Product List | Glossary On
Versions: 1 2 3 4 5 6 7 8 9 10 11 12 13
000
FTUS43 KGRB 282300
TAFCWA
TAF
KCWA 282338Z 0100/0124 19008KT P6SM BKN100
     FM010400 20006KT P6SM SCT030 BKN060
     FM010800 20006KT P6SM -SN OVC025
     FM011500 24007G14KT P6SM SCT030 BKN120
     FM012000 27009KT P6SM SCT120 BKN200
      AMD LTD TO CLD VIS AND WIND 0103/0111=

USA.gov is the U.S. government's official web portal to all federal, state and local government web resources and services.